GRNHM EGKH-EBOS
Flight info
| Callsign | GRNHM |
|---|---|
| Flight time | 0h 45m |
| Altitude | 3000 |
| Route | DVR L18 VABIK Q70 KOK |
| Aircraft | COL4/L-SFG/C |
Departure
| Time | 2026-05-04 12:04 |
|---|---|
| Airport | Headcorn Aerodrome (EGKH) |
Arrival
| Time | 2026-05-04 12:49 |
|---|---|
| Airport | Ostend-Bruges International Airport (EBOS) |
| Time | Latitude | Longitude | Altitude | Speed | Heading |
|---|---|---|---|---|---|
| 2026-05-04 11:43 | 51.15432 | 0.64857 | 70 ft | 0 kts | 114° |
| 2026-05-04 11:57 | 51.15427 | 0.64877 | 67 ft | 7 kts | 112° |
| 2026-05-04 11:57 | 51.15425 | 0.64981 | 67 ft | 10 kts | 81° |
| 2026-05-04 11:57 | 51.15439 | 0.65077 | 66 ft | 0 kts | 65° |
| 2026-05-04 12:00 | 51.15473 | 0.64930 | 68 ft | 31 kts | 284° |
| 2026-05-04 12:00 | 51.15522 | 0.64597 | 67 ft | 24 kts | 292° |
| 2026-05-04 12:00 | 51.15575 | 0.64369 | 67 ft | 21 kts | 294° |
| 2026-05-04 12:00 | 51.15621 | 0.64168 | 61 ft | 20 kts | 287° |
| 2026-05-04 12:01 | 51.15678 | 0.63906 | 57 ft | 25 kts | 294° |
| 2026-05-04 12:01 | 51.15751 | 0.63777 | 60 ft | 13 kts | 90° |
| 2026-05-04 12:02 | 51.15743 | 0.63858 | 62 ft | 0 kts | 102° |
| 2026-05-04 12:03 | 51.15716 | 0.64049 | 59 ft | 47 kts | 101° |
| 2026-05-04 12:03 | 51.15585 | 0.64829 | 112 ft | 93 kts | 102° |
| 2026-05-04 12:04 | 51.15431 | 0.65792 | 534 ft | 82 kts | 102° |
| 2026-05-04 12:04 | 51.15272 | 0.66696 | 852 ft | 91 kts | 103° |
| 2026-05-04 12:04 | 51.15073 | 0.67676 | 1208 ft | 95 kts | 102° |
| 2026-05-04 12:04 | 51.14877 | 0.68697 | 1590 ft | 97 kts | 102° |
| 2026-05-04 12:05 | 51.14858 | 0.69717 | 1951 ft | 93 kts | 71° |
| 2026-05-04 12:05 | 51.14899 | 0.70770 | 2302 ft | 96 kts | 85° |
| 2026-05-04 12:05 | 51.14933 | 0.71843 | 2661 ft | 97 kts | 86° |
| 2026-05-04 12:05 | 51.14985 | 0.72928 | 3013 ft | 99 kts | 81° |
| 2026-05-04 12:06 | 51.15068 | 0.74032 | 3365 ft | 101 kts | 81° |
| 2026-05-04 12:06 | 51.15150 | 0.75137 | 3712 ft | 102 kts | 82° |
| 2026-05-04 12:06 | 51.15238 | 0.76269 | 4063 ft | 104 kts | 82° |
| 2026-05-04 12:06 | 51.15335 | 0.77416 | 4411 ft | 105 kts | 81° |
| 2026-05-04 12:07 | 51.15441 | 0.78575 | 4771 ft | 106 kts | 81° |
| 2026-05-04 12:07 | 51.15558 | 0.79748 | 5122 ft | 107 kts | 81° |
| 2026-05-04 12:07 | 51.15684 | 0.80925 | 5462 ft | 108 kts | 80° |
| 2026-05-04 12:07 | 51.15822 | 0.82122 | 5805 ft | 110 kts | 79° |
| 2026-05-04 12:08 | 51.15967 | 0.83304 | 6126 ft | 109 kts | 79° |
| 2026-05-04 12:08 | 51.16126 | 0.84538 | 6442 ft | 113 kts | 79° |
| 2026-05-04 12:08 | 51.16291 | 0.85758 | 6779 ft | 114 kts | 79° |
| 2026-05-04 12:08 | 51.16467 | 0.86981 | 7130 ft | 112 kts | 77° |
| 2026-05-04 12:09 | 51.16651 | 0.88200 | 7459 ft | 115 kts | 77° |
| 2026-05-04 12:09 | 51.16802 | 0.89448 | 7793 ft | 115 kts | 94° |
| 2026-05-04 12:09 | 51.16782 | 0.90727 | 8135 ft | 115 kts | 91° |
| 2026-05-04 12:09 | 51.16800 | 0.92009 | 8481 ft | 115 kts | 91° |
| 2026-05-04 12:10 | 51.16817 | 0.93290 | 8836 ft | 116 kts | 91° |
| 2026-05-04 12:10 | 51.16832 | 0.94577 | 9207 ft | 116 kts | 91° |
| 2026-05-04 12:10 | 51.16837 | 0.95876 | 9528 ft | 121 kts | 91° |
| 2026-05-04 12:10 | 51.16832 | 0.97194 | 9892 ft | 120 kts | 91° |
| 2026-05-04 12:11 | 51.16823 | 0.98548 | 10189 ft | 124 kts | 92° |
| 2026-05-04 12:11 | 51.16808 | 0.99902 | 10534 ft | 121 kts | 92° |
| 2026-05-04 12:11 | 51.16797 | 1.01247 | 10840 ft | 122 kts | 91° |
| 2026-05-04 12:11 | 51.16762 | 1.02587 | 11183 ft | 120 kts | 94° |
| 2026-05-04 12:12 | 51.16744 | 1.03931 | 11497 ft | 123 kts | 94° |
| 2026-05-04 12:12 | 51.16731 | 1.05282 | 11830 ft | 122 kts | 94° |
| 2026-05-04 12:12 | 51.16729 | 1.06644 | 12148 ft | 124 kts | 93° |
| 2026-05-04 12:12 | 51.16729 | 1.08010 | 12493 ft | 122 kts | 94° |
| 2026-05-04 12:13 | 51.16721 | 1.09363 | 12823 ft | 123 kts | 93° |
| 2026-05-04 12:14 | 51.16669 | 1.18972 | 16026 ft | 126 kts | 94° |
| 2026-05-04 12:15 | 51.16665 | 1.20370 | 16480 ft | 127 kts | 94° |
| 2026-05-04 12:15 | 51.16662 | 1.21780 | 16948 ft | 128 kts | 94° |
| 2026-05-04 12:15 | 51.16667 | 1.23203 | 17425 ft | 129 kts | 94° |
| 2026-05-04 12:15 | 51.16672 | 1.24618 | 17914 ft | 130 kts | 93° |
| 2026-05-04 12:16 | 51.16686 | 1.26061 | 18398 ft | 130 kts | 94° |
| 2026-05-04 12:16 | 51.16685 | 1.27514 | 18813 ft | 132 kts | 94° |
| 2026-05-04 12:16 | 51.16686 | 1.28988 | 19226 ft | 134 kts | 94° |
| 2026-05-04 12:16 | 51.16686 | 1.30486 | 19648 ft | 136 kts | 94° |
| 2026-05-04 12:17 | 51.16688 | 1.32002 | 20073 ft | 138 kts | 94° |
| 2026-05-04 12:17 | 51.16691 | 1.33538 | 20496 ft | 140 kts | 94° |
| 2026-05-04 12:17 | 51.16696 | 1.35096 | 20918 ft | 142 kts | 94° |
| 2026-05-04 12:17 | 51.16703 | 1.36688 | 21340 ft | 144 kts | 94° |
| 2026-05-04 12:18 | 51.16712 | 1.38270 | 21754 ft | 146 kts | 94° |
| 2026-05-04 12:18 | 51.16723 | 1.39900 | 22172 ft | 148 kts | 94° |
| 2026-05-04 12:18 | 51.16734 | 1.41547 | 22587 ft | 149 kts | 94° |
| 2026-05-04 12:18 | 51.16747 | 1.43212 | 22997 ft | 151 kts | 94° |
| 2026-05-04 12:19 | 51.16762 | 1.44893 | 23414 ft | 152 kts | 94° |
| 2026-05-04 12:19 | 51.16781 | 1.46590 | 23782 ft | 154 kts | 94° |
| 2026-05-04 12:19 | 51.16802 | 1.48300 | 24132 ft | 155 kts | 94° |
| 2026-05-04 12:19 | 51.16830 | 1.50017 | 24482 ft | 155 kts | 94° |
| 2026-05-04 12:20 | 51.16864 | 1.51738 | 24830 ft | 156 kts | 94° |
| 2026-05-04 12:20 | 51.16900 | 1.53507 | 25021 ft | 169 kts | 94° |
| 2026-05-04 12:20 | 51.16927 | 1.55508 | 25037 ft | 192 kts | 94° |
| 2026-05-04 12:20 | 51.16945 | 1.57730 | 25038 ft | 209 kts | 94° |
| 2026-05-04 12:21 | 51.16955 | 1.60131 | 25035 ft | 222 kts | 94° |
| 2026-05-04 12:21 | 51.16958 | 1.62640 | 25032 ft | 231 kts | 94° |
| 2026-05-04 12:21 | 51.16957 | 1.65234 | 25032 ft | 237 kts | 94° |
| 2026-05-04 12:21 | 51.16953 | 1.67881 | 25032 ft | 241 kts | 94° |
| 2026-05-04 12:22 | 51.16974 | 1.70535 | 25030 ft | 245 kts | 89° |
| 2026-05-04 12:22 | 51.17453 | 1.73161 | 25029 ft | 250 kts | 69° |
| 2026-05-04 12:22 | 51.18201 | 1.75677 | 25030 ft | 252 kts | 66° |
| 2026-05-04 12:22 | 51.18949 | 1.78215 | 25030 ft | 252 kts | 69° |
| 2026-05-04 12:23 | 51.19648 | 1.80782 | 25030 ft | 253 kts | 69° |
| 2026-05-04 12:23 | 51.20343 | 1.83368 | 25032 ft | 253 kts | 69° |
| 2026-05-04 12:23 | 51.21020 | 1.85961 | 25031 ft | 253 kts | 70° |
| 2026-05-04 12:23 | 51.21688 | 1.88564 | 25032 ft | 254 kts | 70° |
| 2026-05-04 12:24 | 51.22358 | 1.91170 | 25013 ft | 254 kts | 71° |
| 2026-05-04 12:24 | 51.23041 | 1.93774 | 25012 ft | 255 kts | 71° |
| 2026-05-04 12:24 | 51.23731 | 1.96384 | 25012 ft | 255 kts | 70° |
| 2026-05-04 12:24 | 51.24372 | 1.99016 | 25014 ft | 252 kts | 78° |
| 2026-05-04 12:25 | 51.24627 | 2.01727 | 25014 ft | 249 kts | 92° |
| 2026-05-04 12:25 | 51.24584 | 2.04472 | 25014 ft | 246 kts | 100° |
| 2026-05-04 12:25 | 51.24400 | 2.07182 | 25015 ft | 245 kts | 102° |
| 2026-05-04 12:25 | 51.24216 | 2.09892 | 25014 ft | 246 kts | 101° |
| 2026-05-04 12:26 | 51.24033 | 2.12607 | 25016 ft | 246 kts | 101° |
| 2026-05-04 12:26 | 51.23885 | 2.15333 | 25016 ft | 246 kts | 100° |
| 2026-05-04 12:26 | 51.23752 | 2.18064 | 25016 ft | 247 kts | 99° |
| 2026-05-04 12:26 | 51.23622 | 2.20793 | 25016 ft | 247 kts | 99° |
| 2026-05-04 12:27 | 51.23496 | 2.23479 | 25014 ft | 241 kts | 99° |
| 2026-05-04 12:27 | 51.23370 | 2.26158 | 25012 ft | 243 kts | 99° |
| 2026-05-04 12:27 | 51.23243 | 2.28857 | 25010 ft | 244 kts | 99° |
| 2026-05-04 12:27 | 51.23115 | 2.31531 | 25011 ft | 245 kts | 99° |
| 2026-05-04 12:28 | 51.22984 | 2.34277 | 25012 ft | 245 kts | 99° |
| 2026-05-04 12:28 | 51.22854 | 2.36992 | 25013 ft | 246 kts | 99° |
| 2026-05-04 12:28 | 51.22708 | 2.39673 | 25004 ft | 243 kts | 105° |
| 2026-05-04 12:28 | 51.22101 | 2.42159 | 25009 ft | 237 kts | 123° |
| 2026-05-04 12:29 | 51.21266 | 2.44359 | 25010 ft | 232 kts | 134° |
| 2026-05-04 12:29 | 51.20201 | 2.46333 | 25013 ft | 232 kts | 138° |
| 2026-05-04 12:29 | 51.19064 | 2.48064 | 25006 ft | 227 kts | 148° |
| 2026-05-04 12:29 | 51.17795 | 2.49557 | 25008 ft | 227 kts | 150° |
| 2026-05-04 12:30 | 51.16605 | 2.51233 | 25006 ft | 231 kts | 139° |
| 2026-05-04 12:30 | 51.15570 | 2.53222 | 25007 ft | 234 kts | 134° |
| 2026-05-04 12:30 | 51.14549 | 2.55224 | 25007 ft | 233 kts | 136° |
| 2026-05-04 12:30 | 51.13503 | 2.57192 | 25008 ft | 233 kts | 136° |
| 2026-05-04 12:31 | 51.12452 | 2.59155 | 25006 ft | 233 kts | 136° |
| 2026-05-04 12:31 | 51.11401 | 2.61113 | 25007 ft | 233 kts | 136° |
| 2026-05-04 12:31 | 51.10374 | 2.63119 | 25001 ft | 237 kts | 128° |
| 2026-05-04 12:31 | 51.09935 | 2.65690 | 24997 ft | 250 kts | 95° |
| 2026-05-04 12:32 | 51.10381 | 2.68399 | 24998 ft | 258 kts | 66° |
| 2026-05-04 12:32 | 51.12130 | 2.73347 | 25004 ft | 258 kts | 64° |
| 2026-05-04 12:32 | 51.12970 | 2.75873 | 25012 ft | 258 kts | 65° |
| 2026-05-04 12:33 | 51.13811 | 2.78406 | 25012 ft | 259 kts | 65° |
| 2026-05-04 12:33 | 51.14651 | 2.80943 | 25013 ft | 259 kts | 65° |
| 2026-05-04 12:33 | 51.15492 | 2.83485 | 25024 ft | 259 kts | 65° |
| 2026-05-04 12:33 | 51.16351 | 2.86012 | 25015 ft | 259 kts | 65° |
| 2026-05-04 12:34 | 51.17235 | 2.88500 | 25016 ft | 258 kts | 64° |
| 2026-05-04 12:34 | 51.18127 | 2.90977 | 25015 ft | 257 kts | 64° |
| 2026-05-04 12:34 | 51.19042 | 2.93420 | 25015 ft | 257 kts | 61° |
| 2026-05-04 12:34 | 51.20018 | 2.95801 | 25014 ft | 257 kts | 60° |
| 2026-05-04 12:35 | 51.21012 | 2.98175 | 25014 ft | 256 kts | 57° |
| 2026-05-04 12:35 | 51.22391 | 2.99968 | 25011 ft | 260 kts | 25° |
| 2026-05-04 12:35 | 51.24070 | 3.00910 | 25016 ft | 259 kts | 16° |
| 2026-05-04 12:35 | 51.25814 | 3.01453 | 24963 ft | 242 kts | 6° |
| 2026-05-04 12:36 | 51.27468 | 3.01717 | 23715 ft | 242 kts | 1° |
| 2026-05-04 12:36 | 51.29149 | 3.01837 | 22281 ft | 239 kts | 0° |
| 2026-05-04 12:36 | 51.30770 | 3.01938 | 21043 ft | 225 kts | 2° |
| 2026-05-04 12:36 | 51.32221 | 3.02809 | 19807 ft | 225 kts | 37° |
| 2026-05-04 12:37 | 51.32906 | 3.04024 | 19096 ft | 220 kts | 59° |
| 2026-05-04 12:37 | 51.33291 | 3.06318 | 18052 ft | 212 kts | 92° |
| 2026-05-04 12:37 | 51.33287 | 3.08705 | 16842 ft | 209 kts | 80° |
| 2026-05-04 12:37 | 51.33849 | 3.11561 | 15456 ft | 207 kts | 72° |
| 2026-05-04 12:38 | 51.34164 | 3.13016 | 14809 ft | 204 kts | 71° |
| 2026-05-04 12:38 | 51.34628 | 3.15141 | 13883 ft | 200 kts | 72° |
| 2026-05-04 12:38 | 51.35084 | 3.17234 | 12875 ft | 198 kts | 72° |
| 2026-05-04 12:38 | 51.35536 | 3.19313 | 11915 ft | 196 kts | 71° |
| 2026-05-04 12:39 | 51.35967 | 3.21352 | 11023 ft | 189 kts | 72° |
| 2026-05-04 12:39 | 51.35974 | 3.23396 | 10089 ft | 187 kts | 110° |
| 2026-05-04 12:39 | 51.35186 | 3.24963 | 9164 ft | 182 kts | 149° |
| 2026-05-04 12:39 | 51.34009 | 3.25540 | 8274 ft | 179 kts | 171° |
| 2026-05-04 12:40 | 51.32787 | 3.25867 | 7451 ft | 177 kts | 172° |
| 2026-05-04 12:40 | 51.31575 | 3.26157 | 6652 ft | 175 kts | 172° |
| 2026-05-04 12:40 | 51.30369 | 3.26431 | 5849 ft | 173 kts | 172° |
| 2026-05-04 12:40 | 51.29203 | 3.26351 | 4956 ft | 171 kts | 202° |
| 2026-05-04 12:41 | 51.28324 | 3.25138 | 4139 ft | 167 kts | 231° |
| 2026-05-04 12:41 | 51.27602 | 3.23706 | 3410 ft | 164 kts | 232° |
| 2026-05-04 12:41 | 51.26865 | 3.22226 | 3149 ft | 165 kts | 232° |
| 2026-05-04 12:41 | 51.26200 | 3.20896 | 2958 ft | 145 kts | 232° |
| 2026-05-04 12:42 | 51.25575 | 3.19664 | 2768 ft | 141 kts | 232° |
| 2026-05-04 12:42 | 51.24963 | 3.18462 | 2578 ft | 139 kts | 231° |
| 2026-05-04 12:42 | 51.24520 | 3.17175 | 2482 ft | 130 kts | 256° |
| 2026-05-04 12:42 | 51.24262 | 3.15811 | 2453 ft | 129 kts | 253° |
| 2026-05-04 12:43 | 51.24016 | 3.14444 | 2454 ft | 127 kts | 256° |
| 2026-05-04 12:43 | 51.23786 | 3.13093 | 2447 ft | 127 kts | 256° |
| 2026-05-04 12:43 | 51.23560 | 3.11732 | 2421 ft | 127 kts | 255° |
| 2026-05-04 12:43 | 51.23354 | 3.10367 | 2398 ft | 125 kts | 258° |
| 2026-05-04 12:44 | 51.23153 | 3.09013 | 2361 ft | 125 kts | 257° |
| 2026-05-04 12:44 | 51.22929 | 3.07660 | 2275 ft | 128 kts | 253° |
| 2026-05-04 12:44 | 51.22646 | 3.06348 | 2159 ft | 128 kts | 258° |
| 2026-05-04 12:44 | 51.22487 | 3.04942 | 2033 ft | 132 kts | 261° |
| 2026-05-04 12:45 | 51.22293 | 3.03512 | 1948 ft | 128 kts | 258° |
| 2026-05-04 12:45 | 51.22095 | 3.02144 | 1903 ft | 126 kts | 258° |
| 2026-05-04 12:45 | 51.21893 | 3.00819 | 1829 ft | 114 kts | 261° |
| 2026-05-04 12:45 | 51.21747 | 2.99657 | 1709 ft | 104 kts | 258° |
| 2026-05-04 12:46 | 51.21584 | 2.98552 | 1559 ft | 104 kts | 259° |
| 2026-05-04 12:46 | 51.21432 | 2.97492 | 1460 ft | 87 kts | 259° |
| 2026-05-04 12:46 | 51.21309 | 2.96601 | 1358 ft | 80 kts | 261° |
| 2026-05-04 12:46 | 51.21181 | 2.95743 | 1240 ft | 79 kts | 259° |
| 2026-05-04 12:47 | 51.21059 | 2.94876 | 1112 ft | 79 kts | 262° |
| 2026-05-04 12:47 | 51.20928 | 2.94000 | 904 ft | 82 kts | 260° |
| 2026-05-04 12:47 | 51.20789 | 2.93098 | 745 ft | 82 kts | 263° |
| 2026-05-04 12:47 | 51.20690 | 2.92216 | 607 ft | 82 kts | 265° |
| 2026-05-04 12:48 | 51.20549 | 2.91321 | 444 ft | 81 kts | 263° |
| 2026-05-04 12:48 | 51.20425 | 2.90476 | 304 ft | 78 kts | 260° |
| 2026-05-04 12:48 | 51.20308 | 2.89652 | 166 ft | 77 kts | 262° |
| 2026-05-04 12:48 | 51.20186 | 2.88802 | 43 ft | 77 kts | 262° |
| 2026-05-04 12:49 | 51.20072 | 2.88042 | 20 ft | 65 kts | 263° |
| 2026-05-04 12:49 | 51.20003 | 2.87483 | 19 ft | 21 kts | 320° |
| 2026-05-04 12:49 | 51.20097 | 2.87534 | 18 ft | 14 kts | 31° |
| 2026-05-04 12:49 | 51.20103 | 2.87540 | 18 ft | 0 kts | 30° |
| 2026-05-04 12:52 | 51.20106 | 2.87543 | 18 ft | 4 kts | 30° |
| 2026-05-04 12:52 | 51.20168 | 2.87600 | 18 ft | 9 kts | 20° |
| 2026-05-04 12:53 | 51.20171 | 2.87601 | 18 ft | 1 kts | 360° |
| 2026-05-04 12:53 | 51.20145 | 2.87413 | 18 ft | 26 kts | 256° |
| 2026-05-04 12:53 | 51.20104 | 2.87137 | 18 ft | 26 kts | 257° |
| 2026-05-04 12:53 | 51.20066 | 2.86884 | 18 ft | 7 kts | 261° |
| 2026-05-04 12:54 | 51.20027 | 2.86629 | 18 ft | 38 kts | 256° |
| 2026-05-04 12:54 | 51.19970 | 2.86249 | 18 ft | 33 kts | 257° |
| 2026-05-04 12:54 | 51.19924 | 2.85950 | 18 ft | 11 kts | 272° |
| 2026-05-04 12:54 | 51.19991 | 2.86060 | 18 ft | 22 kts | 6° |
| 2026-05-04 12:55 | 51.20116 | 2.86061 | 18 ft | 13 kts | 288° |
| 2026-05-04 12:55 | 51.20103 | 2.86022 | 18 ft | 0 kts | 234° |
| 2026-05-04 12:55 | 51.20100 | 2.86017 | 18 ft | 6 kts | 238° |
| 2026-05-04 12:55 | 51.20036 | 2.85892 | 18 ft | 23 kts | 228° |
| 2026-05-04 12:56 | 51.19943 | 2.85715 | 18 ft | 7 kts | 231° |
| 2026-05-04 12:56 | 51.19937 | 2.85701 | 18 ft | 3 kts | 257° |
| 2026-05-04 12:56 | 51.19959 | 2.85647 | 18 ft | 4 kts | 317° |
| 2026-05-04 12:56 | 51.19955 | 2.85624 | 18 ft | 0 kts | 222° |